sensor_id;sensor_type;location;lat;lon;timestamp;P1;durP1;ratioP1;P2;durP2;ratioP2
51838;SDS011;37886;53.174;6.368;2023-02-18T00:01:22;51.90;;;36.28;;
51838;SDS011;37886;53.174;6.368;2023-02-18T00:03:49;44.85;;;34.75;;
51838;SDS011;37886;53.174;6.368;2023-02-18T00:06:21;46.83;;;35.35;;
51838;SDS011;37886;53.174;6.368;2023-02-18T00:08:49;43.03;;;38.35;;
51838;SDS011;37886;53.174;6.368;2023-02-18T00:11:16;40.38;;;35.00;;
51838;SDS011;37886;53.174;6.368;2023-02-18T00:13:42;40.53;;;36.17;;
51838;SDS011;37886;53.174;6.368;2023-02-18T00:16:13;42.15;;;34.60;;
51838;SDS011;37886;53.174;6.368;2023-02-18T00:18:38;49.30;;;38.50;;
51838;SDS011;37886;53.174;6.368;2023-02-18T00:21:04;44.10;;;36.33;;
51838;SDS011;37886;53.174;6.368;2023-02-18T00:23:31;43.22;;;36.42;;
51838;SDS011;37886;53.174;6.368;2023-02-18T00:28:32;36.83;;;32.88;;
51838;SDS011;37886;53.174;6.368;2023-02-18T00:30:58;40.08;;;33.72;;
51838;SDS011;37886;53.174;6.368;2023-02-18T00:33:29;48.22;;;35.03;;
51838;SDS011;37886;53.174;6.368;2023-02-18T00:35:59;37.10;;;33.13;;
51838;SDS011;37886;53.174;6.368;2023-02-18T00:38:29;45.03;;;35.15;;
51838;SDS011;37886;53.174;6.368;2023-02-18T00:40:55;42.50;;;34.90;;
51838;SDS011;37886;53.174;6.368;2023-02-18T00:43:21;46.05;;;37.05;;
51838;SDS011;37886;53.174;6.368;2023-02-18T00:45:47;44.53;;;33.47;;
51838;SDS011;37886;53.174;6.368;2023-02-18T00:48:12;42.80;;;33.30;;
51838;SDS011;37886;53.174;6.368;2023-02-18T00:50:38;48.67;;;34.45;;
51838;SDS011;37886;53.174;6.368;2023-02-18T00:53:04;43.33;;;34.28;;
51838;SDS011;37886;53.174;6.368;2023-02-18T00:55:29;45.65;;;34.60;;
51838;SDS011;37886;53.174;6.368;2023-02-18T00:57:55;45.38;;;34.35;;
51838;SDS011;37886;53.174;6.368;2023-02-18T01:00:21;37.63;;;33.47;;
51838;SDS011;37886;53.174;6.368;2023-02-18T01:02:49;37.80;;;33.50;;
51838;SDS011;37886;53.174;6.368;2023-02-18T01:05:18;41.90;;;34.17;;
51838;SDS011;37886;53.174;6.368;2023-02-18T01:07:44;41.65;;;32.53;;
51838;SDS011;37886;53.174;6.368;2023-02-18T01:10:10;47.85;;;34.85;;
51838;SDS011;37886;53.174;6.368;2023-02-18T01:12:36;44.88;;;34.38;;
51838;SDS011;37886;53.174;6.368;2023-02-18T01:15:03;38.40;;;33.00;;
51838;SDS011;37886;53.174;6.368;2023-02-18T01:17:30;47.70;;;38.90;;
51838;SDS011;37886;53.174;6.368;2023-02-18T01:19:55;39.40;;;35.15;;
51838;SDS011;37886;53.174;6.368;2023-02-18T01:22:21;41.35;;;32.58;;
51838;SDS011;37886;53.174;6.368;2023-02-18T01:24:47;49.03;;;39.33;;
51838;SDS011;37886;53.174;6.368;2023-02-18T01:27:12;45.30;;;35.28;;
51838;SDS011;37886;53.174;6.368;2023-02-18T01:29:38;49.80;;;35.28;;
51838;SDS011;37886;53.174;6.368;2023-02-18T01:32:04;42.10;;;35.28;;
51838;SDS011;37886;53.174;6.368;2023-02-18T01:34:29;43.50;;;33.97;;
51838;SDS011;37886;53.174;6.368;2023-02-18T01:36:55;39.80;;;35.45;;
51838;SDS011;37886;53.174;6.368;2023-02-18T01:39:21;51.20;;;34.03;;
51838;SDS011;37886;53.174;6.368;2023-02-18T01:41:46;42.20;;;34.13;;
51838;SDS011;37886;53.174;6.368;2023-02-18T01:44:17;46.75;;;34.47;;
51838;SDS011;37886;53.174;6.368;2023-02-18T01:46:50;45.50;;;35.75;;
51838;SDS011;37886;53.174;6.368;2023-02-18T01:49:21;40.55;;;33.63;;
51838;SDS011;37886;53.174;6.368;2023-02-18T01:51:55;45.05;;;36.72;;
51838;SDS011;37886;53.174;6.368;2023-02-18T01:59:25;43.50;;;33.30;;
51838;SDS011;37886;53.174;6.368;2023-02-18T02:01:57;43.90;;;34.63;;
51838;SDS011;37886;53.174;6.368;2023-02-18T02:04:23;39.53;;;35.60;;
51838;SDS011;37886;53.174;6.368;2023-02-18T02:06:48;40.72;;;32.78;;
51838;SDS011;37886;53.174;6.368;2023-02-18T02:09:15;44.83;;;34.60;;
51838;SDS011;37886;53.174;6.368;2023-02-18T02:31:48;46.85;;;35.95;;
51838;SDS011;37886;53.174;6.368;2023-02-18T02:34:32;39.53;;;35.15;;
51838;SDS011;37886;53.174;6.368;2023-02-18T02:43:05;43.10;;;34.88;;
51838;SDS011;37886;53.174;6.368;2023-02-18T02:51:33;46.03;;;35.70;;
51838;SDS011;37886;53.174;6.368;2023-02-18T02:59:43;47.40;;;36.03;;
51838;SDS011;37886;53.174;6.368;2023-02-18T03:02:17;39.95;;;35.67;;
51838;SDS011;37886;53.174;6.368;2023-02-18T03:05:14;40.42;;;34.50;;
51838;SDS011;37886;53.174;6.368;2023-02-18T03:07:56;45.78;;;35.42;;
51838;SDS011;37886;53.174;6.368;2023-02-18T03:10:55;38.70;;;34.97;;
51838;SDS011;37886;53.174;6.368;2023-02-18T03:19:05;44.28;;;36.22;;
51838;SDS011;37886;53.174;6.368;2023-02-18T03:21:42;40.50;;;36.22;;
51838;SDS011;37886;53.174;6.368;2023-02-18T03:26:51;39.67;;;35.45;;
51838;SDS011;37886;53.174;6.368;2023-02-18T03:29:23;43.92;;;39.42;;
51838;SDS011;37886;53.174;6.368;2023-02-18T03:31:52;43.95;;;36.60;;
51838;SDS011;37886;53.174;6.368;2023-02-18T03:36:54;39.50;;;35.42;;
51838;SDS011;37886;53.174;6.368;2023-02-18T03:39:22;38.67;;;34.75;;
51838;SDS011;37886;53.174;6.368;2023-02-18T03:41:51;39.42;;;35.78;;
51838;SDS011;37886;53.174;6.368;2023-02-18T03:44:17;38.50;;;35.03;;
51838;SDS011;37886;53.174;6.368;2023-02-18T03:46:43;40.40;;;36.17;;
51838;SDS011;37886;53.174;6.368;2023-02-18T03:49:09;38.10;;;34.33;;
51838;SDS011;37886;53.174;6.368;2023-02-18T03:51:36;41.65;;;35.30;;
51838;SDS011;37886;53.174;6.368;2023-02-18T03:54:02;41.13;;;34.92;;
51838;SDS011;37886;53.174;6.368;2023-02-18T03:56:28;37.97;;;34.20;;
51838;SDS011;37886;53.174;6.368;2023-02-18T03:58:53;39.75;;;35.50;;
51838;SDS011;37886;53.174;6.368;2023-02-18T04:01:19;39.15;;;35.22;;
51838;SDS011;37886;53.174;6.368;2023-02-18T04:03:45;40.55;;;36.17;;
51838;SDS011;37886;53.174;6.368;2023-02-18T04:06:10;41.65;;;37.20;;
51838;SDS011;37886;53.174;6.368;2023-02-18T04:08:36;40.67;;;36.38;;
51838;SDS011;37886;53.174;6.368;2023-02-18T04:11:02;43.67;;;37.50;;
51838;SDS011;37886;53.174;6.368;2023-02-18T04:13:29;46.85;;;36.50;;
51838;SDS011;37886;53.174;6.368;2023-02-18T04:15:55;44.50;;;39.97;;
51838;SDS011;37886;53.174;6.368;2023-02-18T04:18:21;43.50;;;37.10;;
51838;SDS011;37886;53.174;6.368;2023-02-18T04:20:46;42.88;;;37.88;;
51838;SDS011;37886;53.174;6.368;2023-02-18T04:23:13;41.30;;;37.00;;
51838;SDS011;37886;53.174;6.368;2023-02-18T04:25:39;43.40;;;37.75;;
51838;SDS011;37886;53.174;6.368;2023-02-18T04:28:05;44.58;;;37.17;;
51838;SDS011;37886;53.174;6.368;2023-02-18T04:30:31;54.03;;;39.22;;
51838;SDS011;37886;53.174;6.368;2023-02-18T04:32:57;56.28;;;43.08;;
51838;SDS011;37886;53.174;6.368;2023-02-18T04:35:23;70.70;;;45.85;;
51838;SDS011;37886;53.174;6.368;2023-02-18T04:37:49;61.35;;;42.33;;
51838;SDS011;37886;53.174;6.368;2023-02-18T04:40:15;65.75;;;46.42;;
51838;SDS011;37886;53.174;6.368;2023-02-18T04:42:41;57.78;;;39.03;;
51838;SDS011;37886;53.174;6.368;2023-02-18T04:45:06;65.32;;;38.45;;
51838;SDS011;37886;53.174;6.368;2023-02-18T04:47:33;78.53;;;42.17;;
51838;SDS011;37886;53.174;6.368;2023-02-18T04:49:58;71.97;;;44.67;;
51838;SDS011;37886;53.174;6.368;2023-02-18T04:52:27;72.35;;;46.50;;
51838;SDS011;37886;53.174;6.368;2023-02-18T04:54:56;81.50;;;45.70;;
51838;SDS011;37886;53.174;6.368;2023-02-18T04:57:22;81.68;;;46.85;;
51838;SDS011;37886;53.174;6.368;2023-02-18T04:59:50;89.47;;;51.60;;
51838;SDS011;37886;53.174;6.368;2023-02-18T05:02:16;89.03;;;50.50;;
51838;SDS011;37886;53.174;6.368;2023-02-18T05:04:51;95.00;;;50.80;;
51838;SDS011;37886;53.174;6.368;2023-02-18T05:07:19;105.00;;;52.65;;
51838;SDS011;37886;53.174;6.368;2023-02-18T05:09:45;93.93;;;53.95;;
51838;SDS011;37886;53.174;6.368;2023-02-18T05:12:15;105.75;;;57.72;;
51838;SDS011;37886;53.174;6.368;2023-02-18T05:15:02;128.70;;;58.88;;
51838;SDS011;37886;53.174;6.368;2023-02-18T05:17:52;123.13;;;61.65;;
51838;SDS011;37886;53.174;6.368;2023-02-18T05:20:20;145.55;;;65.43;;
51838;SDS011;37886;53.174;6.368;2023-02-18T05:22:46;143.48;;;66.78;;
51838;SDS011;37886;53.174;6.368;2023-02-18T05:25:15;129.95;;;67.78;;
51838;SDS011;37886;53.174;6.368;2023-02-18T05:27:48;142.90;;;72.00;;
51838;SDS011;37886;53.174;6.368;2023-02-18T05:30:14;169.43;;;86.28;;
51838;SDS011;37886;53.174;6.368;2023-02-18T05:32:40;136.30;;;73.00;;
51838;SDS011;37886;53.174;6.368;2023-02-18T05:35:09;145.30;;;71.35;;
51838;SDS011;37886;53.174;6.368;2023-02-18T05:37:41;151.35;;;74.65;;
51838;SDS011;37886;53.174;6.368;2023-02-18T05:40:07;147.82;;;72.85;;
51838;SDS011;37886;53.174;6.368;2023-02-18T05:42:39;140.55;;;68.38;;
51838;SDS011;37886;53.174;6.368;2023-02-18T05:45:05;131.90;;;66.00;;
51838;SDS011;37886;53.174;6.368;2023-02-18T05:47:31;138.85;;;67.75;;
51838;SDS011;37886;53.174;6.368;2023-02-18T05:49:57;132.82;;;68.63;;
51838;SDS011;37886;53.174;6.368;2023-02-18T05:52:22;131.15;;;65.97;;
51838;SDS011;37886;53.174;6.368;2023-02-18T05:54:48;123.55;;;64.43;;
51838;SDS011;37886;53.174;6.368;2023-02-18T05:57:14;113.57;;;64.80;;
51838;SDS011;37886;53.174;6.368;2023-02-18T05:59:40;111.28;;;64.45;;
51838;SDS011;37886;53.174;6.368;2023-02-18T06:02:06;101.47;;;57.50;;
51838;SDS011;37886;53.174;6.368;2023-02-18T06:04:32;115.40;;;60.50;;
51838;SDS011;37886;53.174;6.368;2023-02-18T06:06:57;114.85;;;59.25;;
51838;SDS011;37886;53.174;6.368;2023-02-18T06:09:23;91.75;;;53.33;;
51838;SDS011;37886;53.174;6.368;2023-02-18T06:11:49;103.55;;;58.47;;
51838;SDS011;37886;53.174;6.368;2023-02-18T06:14:15;88.28;;;43.97;;
51838;SDS011;37886;53.174;6.368;2023-02-18T06:16:41;91.93;;;54.63;;
51838;SDS011;37886;53.174;6.368;2023-02-18T06:19:06;85.20;;;54.05;;
51838;SDS011;37886;53.174;6.368;2023-02-18T06:21:32;81.72;;;54.17;;
51838;SDS011;37886;53.174;6.368;2023-02-18T06:23:58;72.95;;;62.67;;
51838;SDS011;37886;53.174;6.368;2023-02-18T06:26:24;71.43;;;57.83;;
51838;SDS011;37886;53.174;6.368;2023-02-18T06:28:50;79.18;;;70.80;;
51838;SDS011;37886;53.174;6.368;2023-02-18T06:31:15;75.43;;;67.80;;
51838;SDS011;37886;53.174;6.368;2023-02-18T06:33:41;77.63;;;70.28;;
51838;SDS011;37886;53.174;6.368;2023-02-18T06:36:07;76.80;;;69.70;;
51838;SDS011;37886;53.174;6.368;2023-02-18T06:38:37;75.70;;;68.32;;
51838;SDS011;37886;53.174;6.368;2023-02-18T06:41:04;75.10;;;67.88;;
51838;SDS011;37886;53.174;6.368;2023-02-18T06:43:30;85.57;;;77.93;;
51838;SDS011;37886;53.174;6.368;2023-02-18T06:45:56;77.50;;;69.75;;
51838;SDS011;37886;53.174;6.368;2023-02-18T06:48:22;80.68;;;73.20;;
51838;SDS011;37886;53.174;6.368;2023-02-18T06:50:48;79.35;;;71.20;;
51838;SDS011;37886;53.174;6.368;2023-02-18T06:53:14;83.93;;;75.38;;
51838;SDS011;37886;53.174;6.368;2023-02-18T06:55:43;83.75;;;75.28;;
51838;SDS011;37886;53.174;6.368;2023-02-18T06:58:10;85.53;;;76.55;;
51838;SDS011;37886;53.174;6.368;2023-02-18T07:00:36;88.18;;;78.53;;
51838;SDS011;37886;53.174;6.368;2023-02-18T07:03:02;89.63;;;80.35;;
51838;SDS011;37886;53.174;6.368;2023-02-18T07:05:29;100.95;;;90.97;;
51838;SDS011;37886;53.174;6.368;2023-02-18T07:07:55;60.05;;;34.22;;
51838;SDS011;37886;53.174;6.368;2023-02-18T07:10:21;60.53;;;37.28;;
51838;SDS011;37886;53.174;6.368;2023-02-18T07:12:46;59.35;;;35.40;;
51838;SDS011;37886;53.174;6.368;2023-02-18T07:15:12;48.83;;;29.92;;
51838;SDS011;37886;53.174;6.368;2023-02-18T07:17:38;54.33;;;31.77;;
51838;SDS011;37886;53.174;6.368;2023-02-18T07:20:04;49.92;;;29.08;;
51838;SDS011;37886;53.174;6.368;2023-02-18T07:22:31;52.17;;;28.67;;
51838;SDS011;37886;53.174;6.368;2023-02-18T07:24:57;55.20;;;30.00;;
51838;SDS011;37886;53.174;6.368;2023-02-18T07:27:23;49.88;;;28.45;;
51838;SDS011;37886;53.174;6.368;2023-02-18T07:29:49;42.88;;;28.65;;
51838;SDS011;37886;53.174;6.368;2023-02-18T07:32:15;37.47;;;26.38;;
51838;SDS011;37886;53.174;6.368;2023-02-18T07:34:42;49.55;;;25.38;;
51838;SDS011;37886;53.174;6.368;2023-02-18T07:37:08;41.38;;;27.48;;
51838;SDS011;37886;53.174;6.368;2023-02-18T07:39:34;55.97;;;37.67;;
51838;SDS011;37886;53.174;6.368;2023-02-18T07:42:03;75.05;;;48.95;;
51838;SDS011;37886;53.174;6.368;2023-02-18T07:44:29;45.00;;;33.00;;
51838;SDS011;37886;53.174;6.368;2023-02-18T07:46:55;49.05;;;37.03;;
51838;SDS011;37886;53.174;6.368;2023-02-18T07:49:21;54.47;;;41.95;;
51838;SDS011;37886;53.174;6.368;2023-02-18T07:51:47;61.63;;;55.15;;
51838;SDS011;37886;53.174;6.368;2023-02-18T07:54:13;88.50;;;80.55;;
51838;SDS011;37886;53.174;6.368;2023-02-18T07:56:40;92.40;;;83.90;;
51838;SDS011;37886;53.174;6.368;2023-02-18T07:59:07;85.53;;;78.00;;
51838;SDS011;37886;53.174;6.368;2023-02-18T08:01:33;97.88;;;90.00;;
51838;SDS011;37886;53.174;6.368;2023-02-18T08:03:59;77.75;;;71.20;;
51838;SDS011;37886;53.174;6.368;2023-02-18T08:06:27;77.55;;;71.03;;
51838;SDS011;37886;53.174;6.368;2023-02-18T08:08:59;90.85;;;83.18;;
51838;SDS011;37886;53.174;6.368;2023-02-18T08:11:24;75.97;;;68.93;;
51838;SDS011;37886;53.174;6.368;2023-02-18T08:13:50;71.65;;;64.50;;
51838;SDS011;37886;53.174;6.368;2023-02-18T08:16:16;68.13;;;61.60;;
51838;SDS011;37886;53.174;6.368;2023-02-18T08:18:44;71.88;;;65.53;;
51838;SDS011;37886;53.174;6.368;2023-02-18T08:21:12;62.70;;;56.90;;
51838;SDS011;37886;53.174;6.368;2023-02-18T08:23:38;59.17;;;53.22;;
51838;SDS011;37886;53.174;6.368;2023-02-18T08:26:04;62.00;;;56.72;;
51838;SDS011;37886;53.174;6.368;2023-02-18T08:28:29;65.70;;;60.05;;
51838;SDS011;37886;53.174;6.368;2023-02-18T08:30:55;58.88;;;53.08;;
51838;SDS011;37886;53.174;6.368;2023-02-18T08:33:21;63.45;;;57.63;;
51838;SDS011;37886;53.174;6.368;2023-02-18T08:35:48;59.92;;;54.70;;
51838;SDS011;37886;53.174;6.368;2023-02-18T08:38:15;62.33;;;56.65;;
51838;SDS011;37886;53.174;6.368;2023-02-18T08:40:41;50.05;;;44.78;;
51838;SDS011;37886;53.174;6.368;2023-02-18T08:43:07;29.85;;;19.70;;
51838;SDS011;37886;53.174;6.368;2023-02-18T08:45:33;51.15;;;46.15;;
51838;SDS011;37886;53.174;6.368;2023-02-18T08:48:02;60.65;;;54.75;;
51838;SDS011;37886;53.174;6.368;2023-02-18T08:50:28;64.45;;;58.30;;
51838;SDS011;37886;53.174;6.368;2023-02-18T08:52:55;74.10;;;67.72;;
51838;SDS011;37886;53.174;6.368;2023-02-18T08:55:21;59.67;;;54.03;;
51838;SDS011;37886;53.174;6.368;2023-02-18T08:57:47;52.25;;;47.30;;
51838;SDS011;37886;53.174;6.368;2023-02-18T09:00:13;49.75;;;44.90;;
51838;SDS011;37886;53.174;6.368;2023-02-18T09:02:41;48.15;;;43.50;;
51838;SDS011;37886;53.174;6.368;2023-02-18T09:05:07;47.60;;;43.33;;
51838;SDS011;37886;53.174;6.368;2023-02-18T09:07:34;51.47;;;46.65;;
51838;SDS011;37886;53.174;6.368;2023-02-18T09:10:00;47.95;;;40.25;;
51838;SDS011;37886;53.174;6.368;2023-02-18T09:12:27;51.70;;;47.10;;
51838;SDS011;37886;53.174;6.368;2023-02-18T09:14:52;36.20;;;32.13;;
51838;SDS011;37886;53.174;6.368;2023-02-18T09:17:18;36.97;;;32.67;;
51838;SDS011;37886;53.174;6.368;2023-02-18T09:19:44;40.97;;;34.05;;
51838;SDS011;37886;53.174;6.368;2023-02-18T09:22:10;37.90;;;28.80;;
51838;SDS011;37886;53.174;6.368;2023-02-18T09:24:36;40.28;;;33.63;;
51838;SDS011;37886;53.174;6.368;2023-02-18T09:27:03;42.65;;;28.23;;
51838;SDS011;37886;53.174;6.368;2023-02-18T09:29:29;39.92;;;31.38;;
51838;SDS011;37886;53.174;6.368;2023-02-18T09:31:58;35.70;;;25.50;;
51838;SDS011;37886;53.174;6.368;2023-02-18T09:34:25;32.75;;;23.25;;
51838;SDS011;37886;53.174;6.368;2023-02-18T09:36:51;33.53;;;21.52;;
51838;SDS011;37886;53.174;6.368;2023-02-18T09:39:17;45.28;;;32.28;;
51838;SDS011;37886;53.174;6.368;2023-02-18T09:41:49;34.42;;;23.70;;
51838;SDS011;37886;53.174;6.368;2023-02-18T09:44:26;26.48;;;19.23;;
51838;SDS011;37886;53.174;6.368;2023-02-18T09:47:31;28.15;;;15.38;;
51838;SDS011;37886;53.174;6.368;2023-02-18T09:52:48;21.45;;;11.20;;
51838;SDS011;37886;53.174;6.368;2023-02-18T09:55:26;27.02;;;12.13;;
51838;SDS011;37886;53.174;6.368;2023-02-18T09:57:58;26.70;;;10.50;;
51838;SDS011;37886;53.174;6.368;2023-02-18T10:00:32;33.60;;;13.38;;
51838;SDS011;37886;53.174;6.368;2023-02-18T10:03:03;43.70;;;22.05;;
51838;SDS011;37886;53.174;6.368;2023-02-18T10:05:32;33.42;;;11.95;;
51838;SDS011;37886;53.174;6.368;2023-02-18T10:08:01;37.25;;;18.90;;
51838;SDS011;37886;53.174;6.368;2023-02-18T10:13:17;37.63;;;12.75;;
51838;SDS011;37886;53.174;6.368;2023-02-18T10:15:46;20.35;;;6.38;;
51838;SDS011;37886;53.174;6.368;2023-02-18T10:18:24;20.77;;;6.88;;
51838;SDS011;37886;53.174;6.368;2023-02-18T10:20:57;24.63;;;6.28;;
51838;SDS011;37886;53.174;6.368;2023-02-18T10:23:40;26.73;;;8.00;;
51838;SDS011;37886;53.174;6.368;2023-02-18T10:26:12;18.92;;;6.40;;
51838;SDS011;37886;53.174;6.368;2023-02-18T10:28:40;27.15;;;6.47;;
51838;SDS011;37886;53.174;6.368;2023-02-18T10:31:08;32.88;;;11.02;;
51838;SDS011;37886;53.174;6.368;2023-02-18T10:33:44;20.02;;;7.20;;
51838;SDS011;37886;53.174;6.368;2023-02-18T10:41:35;18.75;;;7.15;;
51838;SDS011;37886;53.174;6.368;2023-02-18T10:44:16;25.33;;;7.10;;
51838;SDS011;37886;53.174;6.368;2023-02-18T10:49:52;18.55;;;6.68;;
51838;SDS011;37886;53.174;6.368;2023-02-18T10:52:20;24.27;;;6.85;;
51838;SDS011;37886;53.174;6.368;2023-02-18T10:57:22;25.70;;;7.20;;
51838;SDS011;37886;53.174;6.368;2023-02-18T11:00:03;22.10;;;6.72;;
51838;SDS011;37886;53.174;6.368;2023-02-18T11:03:12;26.00;;;7.28;;
51838;SDS011;37886;53.174;6.368;2023-02-18T11:05:43;21.88;;;6.13;;
51838;SDS011;37886;53.174;6.368;2023-02-18T11:08:13;22.60;;;6.50;;
51838;SDS011;37886;53.174;6.368;2023-02-18T11:10:44;22.70;;;6.88;;
51838;SDS011;37886;53.174;6.368;2023-02-18T11:13:12;20.48;;;6.72;;
51838;SDS011;37886;53.174;6.368;2023-02-18T11:15:54;23.48;;;6.70;;
51838;SDS011;37886;53.174;6.368;2023-02-18T11:18:39;30.52;;;9.98;;
51838;SDS011;37886;53.174;6.368;2023-02-18T11:23:49;19.05;;;7.07;;
51838;SDS011;37886;53.174;6.368;2023-02-18T11:26:17;22.08;;;6.50;;
51838;SDS011;37886;53.174;6.368;2023-02-18T11:28:55;17.90;;;7.15;;
51838;SDS011;37886;53.174;6.368;2023-02-18T11:31:28;20.75;;;5.90;;
51838;SDS011;37886;53.174;6.368;2023-02-18T11:34:04;25.77;;;6.32;;
51838;SDS011;37886;53.174;6.368;2023-02-18T11:36:31;15.82;;;6.20;;
51838;SDS011;37886;53.174;6.368;2023-02-18T11:39:13;20.55;;;6.20;;
51838;SDS011;37886;53.174;6.368;2023-02-18T11:44:30;25.63;;;7.07;;
51838;SDS011;37886;53.174;6.368;2023-02-18T11:47:04;17.10;;;6.00;;
51838;SDS011;37886;53.174;6.368;2023-02-18T11:49:57;21.38;;;6.57;;
51838;SDS011;37886;53.174;6.368;2023-02-18T11:52:45;18.88;;;7.00;;
51838;SDS011;37886;53.174;6.368;2023-02-18T11:55:17;23.58;;;6.38;;
51838;SDS011;37886;53.174;6.368;2023-02-18T11:58:08;19.98;;;5.90;;
51838;SDS011;37886;53.174;6.368;2023-02-18T12:00:38;17.58;;;6.03;;
51838;SDS011;37886;53.174;6.368;2023-02-18T12:05:59;24.90;;;6.20;;
51838;SDS011;37886;53.174;6.368;2023-02-18T12:08:31;15.55;;;5.93;;
51838;SDS011;37886;53.174;6.368;2023-02-18T12:11:05;20.52;;;6.10;;
51838;SDS011;37886;53.174;6.368;2023-02-18T12:13:41;64.82;;;18.52;;
51838;SDS011;37886;53.174;6.368;2023-02-18T12:21:44;17.48;;;6.15;;
51838;SDS011;37886;53.174;6.368;2023-02-18T12:27:19;17.75;;;6.05;;
51838;SDS011;37886;53.174;6.368;2023-02-18T12:32:47;18.88;;;5.68;;
51838;SDS011;37886;53.174;6.368;2023-02-18T12:35:27;19.45;;;7.07;;
51838;SDS011;37886;53.174;6.368;2023-02-18T12:43:56;16.95;;;5.50;;
51838;SDS011;37886;53.174;6.368;2023-02-18T12:55:25;16.90;;;5.57;;
51838;SDS011;37886;53.174;6.368;2023-02-18T13:12:03;24.48;;;5.90;;
51838;SDS011;37886;53.174;6.368;2023-02-18T13:18:30;24.20;;;5.68;;
51838;SDS011;37886;53.174;6.368;2023-02-18T13:21:11;24.73;;;6.38;;
51838;SDS011;37886;53.174;6.368;2023-02-18T13:23:39;20.27;;;6.07;;
51838;SDS011;37886;53.174;6.368;2023-02-18T13:26:19;24.83;;;6.20;;
51838;SDS011;37886;53.174;6.368;2023-02-18T13:32:03;20.00;;;5.60;;
51838;SDS011;37886;53.174;6.368;2023-02-18T13:37:25;22.25;;;5.68;;
51838;SDS011;37886;53.174;6.368;2023-02-18T13:39:55;21.35;;;5.50;;
51838;SDS011;37886;53.174;6.368;2023-02-18T13:42:25;14.77;;;4.90;;
51838;SDS011;37886;53.174;6.368;2023-02-18T13:50:13;20.88;;;5.50;;
51838;SDS011;37886;53.174;6.368;2023-02-18T13:55:39;26.88;;;6.35;;
51838;SDS011;37886;53.174;6.368;2023-02-18T13:58:12;21.23;;;6.15;;
51838;SDS011;37886;53.174;6.368;2023-02-18T14:00:49;21.27;;;5.90;;
51838;SDS011;37886;53.174;6.368;2023-02-18T14:03:32;13.77;;;4.90;;
51838;SDS011;37886;53.174;6.368;2023-02-18T14:06:21;14.80;;;6.07;;
51838;SDS011;37886;53.174;6.368;2023-02-18T14:08:47;23.27;;;5.90;;
51838;SDS011;37886;53.174;6.368;2023-02-18T14:16:13;20.35;;;5.25;;
51838;SDS011;37886;53.174;6.368;2023-02-18T14:21:17;22.25;;;5.47;;
51838;SDS011;37886;53.174;6.368;2023-02-18T14:26:27;23.00;;;7.78;;
51838;SDS011;37886;53.174;6.368;2023-02-18T14:29:24;24.95;;;6.65;;
51838;SDS011;37886;53.174;6.368;2023-02-18T14:32:08;33.72;;;8.57;;
51838;SDS011;37886;53.174;6.368;2023-02-18T14:42:43;22.42;;;6.20;;
51838;SDS011;37886;53.174;6.368;2023-02-18T14:45:32;20.75;;;5.53;;
51838;SDS011;37886;53.174;6.368;2023-02-18T14:48:22;22.83;;;5.40;;
51838;SDS011;37886;53.174;6.368;2023-02-18T14:53:25;20.85;;;5.88;;
51838;SDS011;37886;53.174;6.368;2023-02-18T14:56:02;15.68;;;5.22;;
51838;SDS011;37886;53.174;6.368;2023-02-18T14:58:45;20.73;;;5.45;;
51838;SDS011;37886;53.174;6.368;2023-02-18T15:01:16;21.73;;;5.70;;
51838;SDS011;37886;53.174;6.368;2023-02-18T15:03:51;21.30;;;6.05;;
51838;SDS011;37886;53.174;6.368;2023-02-18T15:08:57;23.05;;;6.03;;
51838;SDS011;37886;53.174;6.368;2023-02-18T15:11:37;22.73;;;5.88;;
51838;SDS011;37886;53.174;6.368;2023-02-18T15:14:13;19.02;;;6.03;;
51838;SDS011;37886;53.174;6.368;2023-02-18T15:16:43;25.63;;;6.20;;
51838;SDS011;37886;53.174;6.368;2023-02-18T15:19:14;19.05;;;6.10;;
51838;SDS011;37886;53.174;6.368;2023-02-18T15:21:43;25.35;;;6.50;;
51838;SDS011;37886;53.174;6.368;2023-02-18T15:26:46;26.30;;;5.63;;
51838;SDS011;37886;53.174;6.368;2023-02-18T15:29:29;27.90;;;6.20;;
51838;SDS011;37886;53.174;6.368;2023-02-18T15:31:59;26.15;;;7.45;;
51838;SDS011;37886;53.174;6.368;2023-02-18T15:34:37;24.60;;;7.28;;
51838;SDS011;37886;53.174;6.368;2023-02-18T15:37:05;21.15;;;5.60;;
51838;SDS011;37886;53.174;6.368;2023-02-18T15:39:34;21.33;;;5.38;;
51838;SDS011;37886;53.174;6.368;2023-02-18T15:44:48;22.85;;;5.90;;
51838;SDS011;37886;53.174;6.368;2023-02-18T15:47:17;23.98;;;6.28;;
51838;SDS011;37886;53.174;6.368;2023-02-18T15:49:44;31.08;;;6.82;;
51838;SDS011;37886;53.174;6.368;2023-02-18T15:52:13;25.73;;;6.37;;
51838;SDS011;37886;53.174;6.368;2023-02-18T15:54:39;23.48;;;5.97;;
51838;SDS011;37886;53.174;6.368;2023-02-18T15:57:06;26.10;;;7.00;;
51838;SDS011;37886;53.174;6.368;2023-02-18T16:00:12;28.90;;;6.78;;
51838;SDS011;37886;53.174;6.368;2023-02-18T16:02:36;22.17;;;6.40;;
51838;SDS011;37886;53.174;6.368;2023-02-18T16:05:21;30.38;;;6.20;;
51838;SDS011;37886;53.174;6.368;2023-02-18T16:07:51;30.52;;;7.90;;
51838;SDS011;37886;53.174;6.368;2023-02-18T16:10:36;28.67;;;7.70;;
51838;SDS011;37886;53.174;6.368;2023-02-18T16:13:12;31.20;;;8.43;;
51838;SDS011;37886;53.174;6.368;2023-02-18T16:15:43;32.42;;;7.07;;
51838;SDS011;37886;53.174;6.368;2023-02-18T16:20:53;34.95;;;8.35;;
51838;SDS011;37886;53.174;6.368;2023-02-18T16:23:52;32.30;;;8.18;;
51838;SDS011;37886;53.174;6.368;2023-02-18T16:28:59;24.23;;;6.38;;
51838;SDS011;37886;53.174;6.368;2023-02-18T16:31:29;29.55;;;7.53;;
51838;SDS011;37886;53.174;6.368;2023-02-18T16:33:55;27.25;;;6.60;;
51838;SDS011;37886;53.174;6.368;2023-02-18T16:36:20;22.55;;;7.28;;
51838;SDS011;37886;53.174;6.368;2023-02-18T16:38:48;27.42;;;7.22;;
51838;SDS011;37886;53.174;6.368;2023-02-18T16:41:14;40.47;;;8.38;;
51838;SDS011;37886;53.174;6.368;2023-02-18T16:43:39;30.15;;;7.43;;
51838;SDS011;37886;53.174;6.368;2023-02-18T16:46:07;30.25;;;7.22;;
51838;SDS011;37886;53.174;6.368;2023-02-18T16:48:41;27.80;;;7.72;;
51838;SDS011;37886;53.174;6.368;2023-02-18T16:51:13;32.90;;;7.22;;
51838;SDS011;37886;53.174;6.368;2023-02-18T16:53:41;36.45;;;9.00;;
51838;SDS011;37886;53.174;6.368;2023-02-18T16:56:15;35.95;;;9.85;;
51838;SDS011;37886;53.174;6.368;2023-02-18T16:58:42;38.80;;;10.25;;
51838;SDS011;37886;53.174;6.368;2023-02-18T17:01:20;29.23;;;8.13;;
51838;SDS011;37886;53.174;6.368;2023-02-18T17:04:02;32.63;;;6.82;;
51838;SDS011;37886;53.174;6.368;2023-02-18T17:06:30;37.90;;;7.35;;
51838;SDS011;37886;53.174;6.368;2023-02-18T17:08:56;30.05;;;7.57;;
51838;SDS011;37886;53.174;6.368;2023-02-18T17:11:29;27.63;;;7.80;;
51838;SDS011;37886;53.174;6.368;2023-02-18T17:13:57;30.05;;;7.82;;
51838;SDS011;37886;53.174;6.368;2023-02-18T17:16:23;25.85;;;6.43;;
51838;SDS011;37886;53.174;6.368;2023-02-18T17:18:50;30.30;;;7.00;;
51838;SDS011;37886;53.174;6.368;2023-02-18T17:21:17;32.50;;;7.03;;
51838;SDS011;37886;53.174;6.368;2023-02-18T17:23:45;36.00;;;7.72;;
51838;SDS011;37886;53.174;6.368;2023-02-18T17:28:42;33.60;;;7.68;;
51838;SDS011;37886;53.174;6.368;2023-02-18T17:31:11;37.63;;;7.88;;
51838;SDS011;37886;53.174;6.368;2023-02-18T17:33:41;37.80;;;8.38;;
51838;SDS011;37886;53.174;6.368;2023-02-18T17:36:08;28.70;;;7.53;;
51838;SDS011;37886;53.174;6.368;2023-02-18T17:38:36;28.85;;;7.00;;